Terminal Aerodrome Forecast
Issued by NWS Sterling, VA

Current Version | Previous Version | Graphics & Text | Print | Product List | Glossary Off
Versions: 1 2 3 4 5 6 7 8 9 10 11 12 13 14 15 16 17 18 19 20 21 22 23

953
FTUS41 KLWX 062054 AAA
TAFMRB
TAF AMD
KMRB 062054Z 0621/0718 34010KT P6SM -SHRA OVC040
     FM062300 34008KT P6SM -SHRA OVC030
     FM070100 34007KT P6SM -SHRA OVC015
     FM070300 32006KT 5SM BR OVC025
     FM071100 33005KT P6SM BKN040=

USA.gov is the U.S. government's official web portal to all federal, state and local government web resources and services.